TAF Text Data
IDs:
Format:
Raw Decoded Include METAR

Data at: 1040 UTC 18 Jan 2022

KDVN 180952Z AUTO 14008KT 10SM OVC095 M04/M07 A2992 RMK AO2 SLP137 T10391067


KMLI 180952Z AUTO 14004KT 10SM OVC095 M03/M07 A2991 RMK AO2 SLP134 T10331067

KMLI 180520Z 1806/1906 VRB04KT P6SM BKN090
  FM181400 17011KT P6SM SCT090
  FM182000 20008KT P6SM SCT090
  FM190200 26012G20KT P6SM SCT025 BKN090